OAL017 LGKP-LGAV
Flight info
| Callsign | OAL017 |
|---|---|
| Flight time | 0h 46m |
| Altitude | 32000 |
| Route | TIPAS N137 RIPLI L995 VARIX |
| Aircraft | B737/M-SDE2E3FGHIRWXY/LB1 |
Departure
| Time | 2026-05-05 11:57 |
|---|---|
| Airport | Karpathos Airport (LGKP) |
Arrival
| Time | 2026-05-05 12:43 |
|---|---|
| Airport | Athens Eleftherios Venizelos International Airport (LGAV) |
| Time | Latitude | Longitude | Altitude | Speed | Heading |
|---|---|---|---|---|---|
| 2026-05-05 11:51 | 35.42611 | 27.14785 | 88 ft | 0 kts | 314° |
| 2026-05-05 11:53 | 35.42615 | 27.14780 | 52 ft | 3 kts | 314° |
| 2026-05-05 11:53 | 35.42628 | 27.14722 | 58 ft | 10 kts | 251° |
| 2026-05-05 11:53 | 35.42551 | 27.14728 | 56 ft | 18 kts | 135° |
| 2026-05-05 11:54 | 35.42426 | 27.14880 | 52 ft | 32 kts | 135° |
| 2026-05-05 11:54 | 35.42237 | 27.15103 | 55 ft | 31 kts | 152° |
| 2026-05-05 11:54 | 35.42027 | 27.15108 | 56 ft | 22 kts | 182° |
| 2026-05-05 11:54 | 35.41897 | 27.15254 | 55 ft | 33 kts | 125° |
| 2026-05-05 11:55 | 35.41742 | 27.15522 | 55 ft | 36 kts | 124° |
| 2026-05-05 11:55 | 35.41643 | 27.15639 | 54 ft | 0 kts | 158° |
| 2026-05-05 11:55 | 35.41599 | 27.15659 | 55 ft | 12 kts | 169° |
| 2026-05-05 11:56 | 35.41553 | 27.15629 | 57 ft | 9 kts | 219° |
| 2026-05-05 11:56 | 35.41544 | 27.15598 | 59 ft | 3 kts | 284° |
| 2026-05-05 11:56 | 35.41601 | 27.15497 | 56 ft | 44 kts | 305° |
| 2026-05-05 11:56 | 35.41930 | 27.14915 | 54 ft | 119 kts | 303° |
| 2026-05-05 11:57 | 35.42456 | 27.13945 | 489 ft | 140 kts | 300° |
| 2026-05-05 11:57 | 35.42990 | 27.12923 | 1305 ft | 146 kts | 302° |
| 2026-05-05 11:57 | 35.43549 | 27.11881 | 2239 ft | 145 kts | 304° |
| 2026-05-05 11:57 | 35.44117 | 27.10835 | 3094 ft | 152 kts | 307° |
| 2026-05-05 11:58 | 35.44836 | 27.09644 | 3568 ft | 192 kts | 308° |
| 2026-05-05 11:58 | 35.45655 | 27.08287 | 4547 ft | 201 kts | 308° |
| 2026-05-05 11:58 | 35.46474 | 27.06903 | 5763 ft | 200 kts | 308° |
| 2026-05-05 11:58 | 35.47287 | 27.05470 | 6718 ft | 214 kts | 308° |
| 2026-05-05 11:59 | 35.48205 | 27.03848 | 7133 ft | 249 kts | 308° |
| 2026-05-05 11:59 | 35.49217 | 27.02073 | 8068 ft | 258 kts | 308° |
| 2026-05-05 11:59 | 35.50255 | 27.00250 | 9206 ft | 263 kts | 308° |
| 2026-05-05 11:59 | 35.51391 | 26.98477 | 10255 ft | 266 kts | 322° |
| 2026-05-05 12:00 | 35.53047 | 26.97315 | 10805 ft | 289 kts | 337° |
| 2026-05-05 12:00 | 35.54997 | 26.96307 | 11091 ft | 318 kts | 338° |
| 2026-05-05 12:00 | 35.57091 | 26.95246 | 11831 ft | 330 kts | 338° |
| 2026-05-05 12:00 | 35.59224 | 26.94136 | 12776 ft | 335 kts | 337° |
| 2026-05-05 12:01 | 35.61375 | 26.92981 | 13762 ft | 341 kts | 336° |
| 2026-05-05 12:01 | 35.63562 | 26.91780 | 14572 ft | 348 kts | 336° |
| 2026-05-05 12:01 | 35.65768 | 26.90548 | 15586 ft | 348 kts | 335° |
| 2026-05-05 12:01 | 35.67989 | 26.89296 | 16413 ft | 355 kts | 334° |
| 2026-05-05 12:02 | 35.70245 | 26.88018 | 17330 ft | 358 kts | 334° |
| 2026-05-05 12:02 | 35.72498 | 26.86737 | 18100 ft | 366 kts | 333° |
| 2026-05-05 12:02 | 35.74837 | 26.85405 | 18750 ft | 374 kts | 333° |
| 2026-05-05 12:02 | 35.77213 | 26.84052 | 19504 ft | 378 kts | 333° |
| 2026-05-05 12:03 | 35.79616 | 26.82684 | 20230 ft | 382 kts | 333° |
| 2026-05-05 12:03 | 35.82037 | 26.81304 | 21031 ft | 385 kts | 333° |
| 2026-05-05 12:03 | 35.84482 | 26.79909 | 21744 ft | 389 kts | 333° |
| 2026-05-05 12:03 | 35.86950 | 26.78501 | 22471 ft | 393 kts | 333° |
| 2026-05-05 12:04 | 35.89440 | 26.77078 | 23161 ft | 398 kts | 334° |
| 2026-05-05 12:04 | 35.91920 | 26.75520 | 23748 ft | 402 kts | 328° |
| 2026-05-05 12:04 | 35.94300 | 26.73685 | 24339 ft | 405 kts | 326° |
| 2026-05-05 12:04 | 35.96662 | 26.71770 | 24904 ft | 408 kts | 325° |
| 2026-05-05 12:05 | 35.99029 | 26.69827 | 25548 ft | 409 kts | 325° |
| 2026-05-05 12:05 | 36.01401 | 26.67883 | 26179 ft | 410 kts | 325° |
| 2026-05-05 12:05 | 36.03793 | 26.65935 | 26702 ft | 414 kts | 325° |
| 2026-05-05 12:05 | 36.06210 | 26.63979 | 27225 ft | 417 kts | 326° |
| 2026-05-05 12:06 | 36.08647 | 26.62014 | 27771 ft | 419 kts | 326° |
| 2026-05-05 12:06 | 36.11084 | 26.60054 | 28474 ft | 417 kts | 326° |
| 2026-05-05 12:06 | 36.13500 | 26.58112 | 29351 ft | 411 kts | 326° |
| 2026-05-05 12:06 | 36.15884 | 26.56196 | 30213 ft | 406 kts | 326° |
| 2026-05-05 12:07 | 36.18203 | 26.54331 | 31252 ft | 391 kts | 326° |
| 2026-05-05 12:07 | 36.20479 | 26.52498 | 31809 ft | 392 kts | 326° |
| 2026-05-05 12:07 | 36.22767 | 26.50653 | 32079 ft | 394 kts | 326° |
| 2026-05-05 12:07 | 36.25069 | 26.48796 | 32079 ft | 395 kts | 326° |
| 2026-05-05 12:08 | 36.29627 | 26.45114 | 32100 ft | 389 kts | 326° |
| 2026-05-05 12:08 | 36.34154 | 26.41453 | 32097 ft | 393 kts | 326° |
| 2026-05-05 12:09 | 36.38734 | 26.37743 | 32094 ft | 394 kts | 326° |
| 2026-05-05 12:09 | 36.43319 | 26.34024 | 32088 ft | 393 kts | 326° |
| 2026-05-05 12:10 | 36.47887 | 26.30313 | 32092 ft | 392 kts | 326° |
| 2026-05-05 12:10 | 36.52438 | 26.26611 | 32092 ft | 390 kts | 326° |
| 2026-05-05 12:11 | 36.56917 | 26.22810 | 32089 ft | 389 kts | 321° |
| 2026-05-05 12:11 | 36.60828 | 26.18173 | 32086 ft | 388 kts | 316° |
| 2026-05-05 12:12 | 36.64680 | 26.13456 | 32099 ft | 388 kts | 316° |
| 2026-05-05 12:12 | 36.68540 | 26.08747 | 32097 ft | 389 kts | 316° |
| 2026-05-05 12:13 | 36.72411 | 26.04040 | 32098 ft | 389 kts | 316° |
| 2026-05-05 12:13 | 36.76266 | 25.99353 | 32103 ft | 390 kts | 316° |
| 2026-05-05 12:14 | 36.80144 | 25.94632 | 32087 ft | 390 kts | 316° |
| 2026-05-05 12:14 | 36.84025 | 25.89901 | 32101 ft | 390 kts | 316° |
| 2026-05-05 12:15 | 36.87899 | 25.85170 | 32110 ft | 390 kts | 316° |
| 2026-05-05 12:15 | 36.91773 | 25.80434 | 32102 ft | 389 kts | 316° |
| 2026-05-05 12:16 | 36.95631 | 25.75709 | 32103 ft | 388 kts | 316° |
| 2026-05-05 12:16 | 36.99478 | 25.70990 | 32103 ft | 387 kts | 316° |
| 2026-05-05 12:17 | 37.03321 | 25.66270 | 32104 ft | 387 kts | 316° |
| 2026-05-05 12:17 | 37.07164 | 25.61542 | 32096 ft | 387 kts | 316° |
| 2026-05-05 12:18 | 37.11004 | 25.56810 | 32111 ft | 388 kts | 316° |
| 2026-05-05 12:18 | 37.14853 | 25.52061 | 32106 ft | 389 kts | 316° |
| 2026-05-05 12:19 | 37.18681 | 25.47331 | 32107 ft | 389 kts | 316° |
| 2026-05-05 12:19 | 37.22528 | 25.42573 | 32102 ft | 388 kts | 316° |
| 2026-05-05 12:20 | 37.26222 | 25.37660 | 32099 ft | 389 kts | 308° |
| 2026-05-05 12:20 | 37.28877 | 25.31734 | 32057 ft | 393 kts | 294° |
| 2026-05-05 12:21 | 37.30627 | 25.25222 | 32114 ft | 394 kts | 292° |
| 2026-05-05 12:21 | 37.32336 | 25.18676 | 32102 ft | 394 kts | 292° |
| 2026-05-05 12:22 | 37.34075 | 25.12128 | 31679 ft | 399 kts | 292° |
| 2026-05-05 12:22 | 37.34956 | 25.08826 | 31063 ft | 397 kts | 292° |
| 2026-05-05 12:22 | 37.35825 | 25.05561 | 30565 ft | 391 kts | 292° |
| 2026-05-05 12:23 | 37.36683 | 25.02332 | 29973 ft | 388 kts | 292° |
| 2026-05-05 12:23 | 37.37532 | 24.99139 | 29317 ft | 383 kts | 292° |
| 2026-05-05 12:23 | 37.38370 | 24.95984 | 28758 ft | 377 kts | 292° |
| 2026-05-05 12:23 | 37.39195 | 24.92878 | 28190 ft | 372 kts | 292° |
| 2026-05-05 12:24 | 37.40007 | 24.89813 | 27631 ft | 367 kts | 292° |
| 2026-05-05 12:24 | 37.40811 | 24.86781 | 27076 ft | 364 kts | 292° |
| 2026-05-05 12:24 | 37.41607 | 24.83777 | 26519 ft | 361 kts | 292° |
| 2026-05-05 12:24 | 37.42396 | 24.80794 | 25973 ft | 358 kts | 292° |
| 2026-05-05 12:25 | 37.43178 | 24.77833 | 25437 ft | 355 kts | 292° |
| 2026-05-05 12:25 | 37.43952 | 24.74898 | 24905 ft | 352 kts | 291° |
| 2026-05-05 12:25 | 37.44721 | 24.71980 | 24374 ft | 350 kts | 291° |
| 2026-05-05 12:25 | 37.45484 | 24.69081 | 23838 ft | 348 kts | 291° |
| 2026-05-05 12:26 | 37.46244 | 24.66190 | 23225 ft | 347 kts | 291° |
| 2026-05-05 12:26 | 37.46999 | 24.63314 | 22640 ft | 344 kts | 291° |
| 2026-05-05 12:26 | 37.47747 | 24.60463 | 22107 ft | 341 kts | 291° |
| 2026-05-05 12:26 | 37.48486 | 24.57641 | 21560 ft | 338 kts | 291° |
| 2026-05-05 12:27 | 37.49219 | 24.54838 | 20921 ft | 338 kts | 291° |
| 2026-05-05 12:27 | 37.49959 | 24.52011 | 20170 ft | 341 kts | 290° |
| 2026-05-05 12:27 | 37.50700 | 24.49174 | 19586 ft | 340 kts | 290° |
| 2026-05-05 12:27 | 37.51418 | 24.46418 | 19001 ft | 331 kts | 290° |
| 2026-05-05 12:28 | 37.52132 | 24.43675 | 18114 ft | 329 kts | 290° |
| 2026-05-05 12:28 | 37.52843 | 24.40945 | 17310 ft | 324 kts | 290° |
| 2026-05-05 12:28 | 37.53531 | 24.38296 | 16729 ft | 314 kts | 290° |
| 2026-05-05 12:28 | 37.54196 | 24.35730 | 16232 ft | 303 kts | 290° |
| 2026-05-05 12:29 | 37.54902 | 24.33251 | 15742 ft | 298 kts | 299° |
| 2026-05-05 12:29 | 37.56189 | 24.31242 | 15268 ft | 296 kts | 321° |
| 2026-05-05 12:29 | 37.57981 | 24.29878 | 14524 ft | 311 kts | 338° |
| 2026-05-05 12:29 | 37.60115 | 24.29298 | 13882 ft | 316 kts | 352° |
| 2026-05-05 12:30 | 37.62277 | 24.29049 | 13261 ft | 307 kts | 354° |
| 2026-05-05 12:30 | 37.64378 | 24.28858 | 12752 ft | 302 kts | 355° |
| 2026-05-05 12:30 | 37.66467 | 24.28667 | 12261 ft | 300 kts | 355° |
| 2026-05-05 12:30 | 37.68536 | 24.28468 | 11756 ft | 297 kts | 355° |
| 2026-05-05 12:31 | 37.70591 | 24.28261 | 11280 ft | 295 kts | 355° |
| 2026-05-05 12:31 | 37.72634 | 24.28048 | 10802 ft | 293 kts | 355° |
| 2026-05-05 12:31 | 37.74659 | 24.27834 | 10436 ft | 288 kts | 355° |
| 2026-05-05 12:31 | 37.76606 | 24.27625 | 10315 ft | 274 kts | 355° |
| 2026-05-05 12:32 | 37.78466 | 24.27425 | 10184 ft | 262 kts | 355° |
| 2026-05-05 12:32 | 37.80246 | 24.27233 | 9993 ft | 253 kts | 355° |
| 2026-05-05 12:32 | 37.81997 | 24.27044 | 9654 ft | 251 kts | 355° |
| 2026-05-05 12:32 | 37.83736 | 24.26857 | 9224 ft | 252 kts | 355° |
| 2026-05-05 12:33 | 37.85479 | 24.26669 | 8830 ft | 251 kts | 355° |
| 2026-05-05 12:33 | 37.87215 | 24.26481 | 8464 ft | 250 kts | 355° |
| 2026-05-05 12:33 | 37.88942 | 24.26295 | 8103 ft | 248 kts | 355° |
| 2026-05-05 12:33 | 37.90656 | 24.26110 | 7755 ft | 247 kts | 355° |
| 2026-05-05 12:34 | 37.92358 | 24.25925 | 7411 ft | 245 kts | 355° |
| 2026-05-05 12:34 | 37.94028 | 24.25744 | 7089 ft | 243 kts | 354° |
| 2026-05-05 12:34 | 37.95707 | 24.25563 | 6775 ft | 241 kts | 354° |
| 2026-05-05 12:34 | 37.97337 | 24.25386 | 6678 ft | 230 kts | 354° |
| 2026-05-05 12:35 | 37.98899 | 24.25217 | 6560 ft | 220 kts | 354° |
| 2026-05-05 12:35 | 38.00372 | 24.24828 | 6313 ft | 216 kts | 337° |
| 2026-05-05 12:35 | 38.01727 | 24.24050 | 6081 ft | 214 kts | 336° |
| 2026-05-05 12:35 | 38.03082 | 24.23287 | 5805 ft | 213 kts | 336° |
| 2026-05-05 12:36 | 38.04436 | 24.22534 | 5530 ft | 212 kts | 336° |
| 2026-05-05 12:36 | 38.05778 | 24.21778 | 5261 ft | 211 kts | 333° |
| 2026-05-05 12:36 | 38.06948 | 24.20706 | 5118 ft | 203 kts | 320° |
| 2026-05-05 12:36 | 38.08010 | 24.19563 | 5011 ft | 199 kts | 321° |
| 2026-05-05 12:37 | 38.09077 | 24.18421 | 4933 ft | 202 kts | 317° |
| 2026-05-05 12:37 | 38.09802 | 24.16920 | 4826 ft | 200 kts | 288° |
| 2026-05-05 12:37 | 38.10025 | 24.15197 | 4629 ft | 197 kts | 279° |
| 2026-05-05 12:37 | 38.10152 | 24.13477 | 4455 ft | 196 kts | 278° |
| 2026-05-05 12:38 | 38.10277 | 24.11745 | 4225 ft | 197 kts | 278° |
| 2026-05-05 12:38 | 38.10360 | 24.10037 | 3974 ft | 189 kts | 266° |
| 2026-05-05 12:38 | 38.09771 | 24.08623 | 3757 ft | 183 kts | 221° |
| 2026-05-05 12:38 | 38.08765 | 24.07689 | 3656 ft | 175 kts | 219° |
| 2026-05-05 12:39 | 38.07779 | 24.06778 | 3467 ft | 176 kts | 219° |
| 2026-05-05 12:39 | 38.06795 | 24.05851 | 3246 ft | 176 kts | 220° |
| 2026-05-05 12:39 | 38.05821 | 24.04925 | 3015 ft | 174 kts | 220° |
| 2026-05-05 12:39 | 38.04850 | 24.03999 | 2781 ft | 175 kts | 220° |
| 2026-05-05 12:40 | 38.03884 | 24.03078 | 2551 ft | 169 kts | 220° |
| 2026-05-05 12:40 | 38.02981 | 24.02218 | 2357 ft | 158 kts | 219° |
| 2026-05-05 12:40 | 38.02121 | 24.01397 | 2132 ft | 152 kts | 220° |
| 2026-05-05 12:40 | 38.01269 | 24.00582 | 1945 ft | 155 kts | 219° |
| 2026-05-05 12:41 | 38.00408 | 23.99760 | 1720 ft | 154 kts | 219° |
| 2026-05-05 12:41 | 37.99850 | 23.99229 | 1591 ft | 148 kts | 219° |
| 2026-05-05 12:41 | 37.99046 | 23.98461 | 1403 ft | 142 kts | 219° |
| 2026-05-05 12:41 | 37.98266 | 23.97716 | 1204 ft | 141 kts | 218° |
| 2026-05-05 12:42 | 37.97481 | 23.96968 | 1033 ft | 142 kts | 217° |
| 2026-05-05 12:42 | 37.96708 | 23.96229 | 827 ft | 137 kts | 216° |
| 2026-05-05 12:42 | 37.95950 | 23.95506 | 646 ft | 138 kts | 214° |
| 2026-05-05 12:42 | 37.95193 | 23.94782 | 475 ft | 137 kts | 216° |
| 2026-05-05 12:43 | 37.94444 | 23.94068 | 312 ft | 131 kts | 217° |
| 2026-05-05 12:43 | 37.93822 | 23.93476 | 293 ft | 66 kts | 217° |
| 2026-05-05 12:43 | 37.93630 | 23.93292 | 290 ft | 2 kts | 217° |
| 2026-05-05 12:43 | 37.93609 | 23.93291 | 289 ft | 4 kts | 158° |
| 2026-05-05 12:44 | 37.93606 | 23.93323 | 289 ft | 4 kts | 88° |
| 2026-05-05 12:44 | 37.93607 | 23.93355 | 290 ft | 4 kts | 89° |
| 2026-05-05 12:44 | 37.93608 | 23.93386 | 292 ft | 3 kts | 89° |
| 2026-05-05 12:44 | 37.93608 | 23.93417 | 293 ft | 3 kts | 89° |
| 2026-05-05 12:45 | 37.93608 | 23.93446 | 295 ft | 3 kts | 90° |
| 2026-05-05 12:45 | 37.93608 | 23.93474 | 296 ft | 3 kts | 90° |
| 2026-05-05 12:45 | 37.93606 | 23.93501 | 297 ft | 3 kts | 115° |
| 2026-05-05 12:45 | 37.93584 | 23.93503 | 297 ft | 3 kts | 183° |
| 2026-05-05 12:46 | 37.93534 | 23.93478 | 299 ft | 13 kts | 213° |
| 2026-05-05 12:46 | 37.93474 | 23.93432 | 299 ft | 8 kts | 198° |
| 2026-05-05 12:46 | 37.93426 | 23.93450 | 298 ft | 7 kts | 146° |
| 2026-05-05 12:46 | 37.93395 | 23.93500 | 299 ft | 7 kts | 127° |
| 2026-05-05 12:47 | 37.93365 | 23.93549 | 299 ft | 7 kts | 128° |
| 2026-05-05 12:47 | 37.93336 | 23.93597 | 302 ft | 7 kts | 128° |
| 2026-05-05 12:47 | 37.93308 | 23.93644 | 300 ft | 7 kts | 127° |
| 2026-05-05 12:47 | 37.93280 | 23.93691 | 300 ft | 7 kts | 127° |
| 2026-05-05 12:48 | 37.93252 | 23.93736 | 300 ft | 6 kts | 128° |
| 2026-05-05 12:48 | 37.93222 | 23.93785 | 300 ft | 8 kts | 127° |
| 2026-05-05 12:48 | 37.93182 | 23.93851 | 302 ft | 11 kts | 128° |
| 2026-05-05 12:48 | 37.93130 | 23.93936 | 302 ft | 14 kts | 128° |
| 2026-05-05 12:49 | 37.93094 | 23.93994 | 300 ft | 8 kts | 127° |
| 2026-05-05 12:49 | 37.93055 | 23.94058 | 301 ft | 10 kts | 126° |
| 2026-05-05 12:49 | 37.93009 | 23.94143 | 300 ft | 13 kts | 127° |
| 2026-05-05 12:49 | 37.92988 | 23.94232 | 300 ft | 11 kts | 53° |
| 2026-05-05 12:50 | 37.93039 | 23.94272 | 301 ft | 3 kts | 37° |
| 2026-05-05 12:50 | 37.93049 | 23.94282 | 301 ft | 0 kts | 37° |